Time,TemperatureF,DewpointF,PressureIn,WindDirection,WindDirectionDegrees,WindSpeedMPH,WindSpeedGustMPH,Humidity,HourlyPrecipIn,Conditions,Clouds,dailyrainin,SolarRadiationWatts/m^2,SoftwareType,DateUTC
2013-01-10 01:02:00,19.0,18.0,-100.00,ENE,64,2.0,3.0,94,-99.99,,,0.00,1.000000,,2013-01-10 07:02:00,
2013-01-10 01:22:00,19.0,18.0,-100.00,ENE,64,2.0,3.0,94,-99.99,,,0.00,1.000000,,2013-01-10 07:22:00,
2013-01-10 01:32:00,19.0,18.0,-100.00,ENE,64,2.0,3.0,94,-99.99,,,0.00,1.000000,,2013-01-10 07:32:00,
2013-01-10 01:42:00,19.0,18.0,-100.00,ENE,64,2.0,3.0,94,-99.99,,,0.00,1.000000,,2013-01-10 07:42:00,
2013-01-10 01:52:00,19.0,18.0,-100.00,ENE,64,2.0,3.0,94,-99.99,,,0.00,1.000000,,2013-01-10 07:52:00,
2013-01-10 02:02:00,16.0,16.0,-100.00,SE,144,2.0,4.0,100,0.00,,,0.00,1.000000,,2013-01-10 08:02:00,
2013-01-10 02:33:00,16.0,16.0,-100.00,SE,144,2.0,4.0,100,0.00,,,0.00,1.000000,,2013-01-10 08:33:00,
2013-01-10 02:42:00,16.0,16.0,-100.00,SE,144,2.0,4.0,100,0.00,,,0.00,1.000000,,2013-01-10 08:42:00,
2013-01-10 02:53:00,16.0,16.0,-100.00,SE,144,2.0,4.0,100,0.00,,,0.00,1.000000,,2013-01-10 08:53:00,
2013-01-10 03:02:00,17.0,17.0,-100.00,SSW,205,4.0,9.0,99,0.00,,,0.00,1.000000,,2013-01-10 09:02:00,
2013-01-10 03:32:00,17.0,17.0,-100.00,SSW,205,4.0,9.0,99,0.00,,,0.00,1.000000,,2013-01-10 09:32:00,
2013-01-10 03:43:00,17.0,17.0,-100.00,SSW,205,4.0,9.0,99,0.00,,,0.00,1.000000,,2013-01-10 09:43:00,
2013-01-10 03:52:00,17.0,17.0,-100.00,SSW,205,4.0,9.0,99,0.00,,,0.00,1.000000,,2013-01-10 09:52:00,
2013-01-10 04:02:00,17.0,17.0,-100.00,SSW,202,3.0,7.0,98,0.00,,,0.00,1.000000,,2013-01-10 10:02:00,
2013-01-10 04:33:00,17.0,17.0,-100.00,SSW,202,3.0,7.0,98,0.00,,,0.00,1.000000,,2013-01-10 10:33:00,
2013-01-10 04:42:00,17.0,17.0,-100.00,SSW,202,3.0,7.0,98,0.00,,,0.00,1.000000,,2013-01-10 10:42:00,
2013-01-10 04:52:00,17.0,17.0,-100.00,SSW,202,3.0,7.0,98,0.00,,,0.00,1.000000,,2013-01-10 10:52:00,
2013-01-10 05:02:00,16.0,16.0,-100.00,South,183,3.0,7.0,99,0.00,,,0.00,1.000000,,2013-01-10 11:02:00,
2013-01-10 05:23:00,16.0,16.0,-100.00,South,183,3.0,7.0,99,0.00,,,0.00,1.000000,,2013-01-10 11:23:00,
2013-01-10 05:33:00,16.0,16.0,-100.00,South,183,3.0,7.0,99,0.00,,,0.00,1.000000,,2013-01-10 11:33:00,
2013-01-10 05:43:00,16.0,16.0,-100.00,South,183,3.0,7.0,99,0.00,,,0.00,1.000000,,2013-01-10 11:43:00,
2013-01-10 05:53:00,16.0,16.0,-100.00,South,183,3.0,7.0,99,0.00,,,0.00,1.000000,,2013-01-10 11:53:00,
2013-01-10 08:02:00,20.0,18.0,-100.00,South,172,3.0,9.0,91,-99.99,,,0.00,4.000000,,2013-01-10 14:02:00,
2013-01-10 08:23:00,20.0,18.0,-100.00,South,172,3.0,9.0,91,-99.99,,,0.00,4.000000,,2013-01-10 14:23:00,
2013-01-10 08:33:00,20.0,18.0,-100.00,South,172,3.0,9.0,91,-99.99,,,0.00,4.000000,,2013-01-10 14:33:00,
2013-01-10 08:43:00,20.0,18.0,-100.00,South,172,3.0,9.0,91,-99.99,,,0.00,4.000000,,2013-01-10 14:43:00,
2013-01-10 08:53:00,20.0,18.0,-100.00,South,172,3.0,9.0,91,-99.99,,,0.00,4.000000,,2013-01-10 14:53:00,
2013-01-10 09:02:00,27.0,20.0,-100.00,SSW,193,5.0,10.0,73,0.00,,,0.00,77.000000,,2013-01-10 15:02:00,
2013-01-10 09:33:00,27.0,20.0,-100.00,SSW,193,5.0,10.0,73,0.00,,,0.00,77.000000,,2013-01-10 15:33:00,
2013-01-10 09:43:00,27.0,20.0,-100.00,SSW,193,5.0,10.0,73,0.00,,,0.00,77.000000,,2013-01-10 15:43:00,
2013-01-10 09:53:00,27.0,20.0,-100.00,SSW,193,5.0,10.0,73,0.00,,,0.00,77.000000,,2013-01-10 15:53:00,
2013-01-10 10:02:00,35.0,18.0,-100.00,SSW,202,5.0,12.0,49,0.00,,,0.00,251.000000,,2013-01-10 16:02:00,
2013-01-10 10:33:00,35.0,18.0,-100.00,SSW,202,5.0,12.0,49,0.00,,,0.00,251.000000,,2013-01-10 16:33:00,
2013-01-10 10:43:00,35.0,18.0,-100.00,SSW,202,5.0,12.0,49,0.00,,,0.00,251.000000,,2013-01-10 16:43:00,
2013-01-10 10:53:00,35.0,18.0,-100.00,SSW,202,5.0,12.0,49,0.00,,,0.00,251.000000,,2013-01-10 16:53:00,
2013-01-10 11:02:00,36.0,15.0,-100.00,South,191,4.0,13.0,42,0.00,,,0.00,210.000000,,2013-01-10 17:02:00,
2013-01-10 11:33:00,36.0,15.0,-100.00,South,191,4.0,13.0,42,0.00,,,0.00,210.000000,,2013-01-10 17:33:00,
2013-01-10 11:43:00,36.0,15.0,-100.00,South,191,4.0,13.0,42,0.00,,,0.00,210.000000,,2013-01-10 17:43:00,
2013-01-10 11:53:00,36.0,15.0,-100.00,South,191,4.0,13.0,42,0.00,,,0.00,210.000000,,2013-01-10 17:53:00,
2013-01-10 12:02:00,42.0,14.0,-100.00,SSW,199,5.0,13.0,31,0.00,,,0.00,332.000000,,2013-01-10 18:02:00,
2013-01-10 12:23:00,42.0,14.0,-100.00,SSW,199,5.0,13.0,31,0.00,,,0.00,332.000000,,2013-01-10 18:23:00,
2013-01-10 12:33:00,42.0,14.0,-100.00,SSW,199,5.0,13.0,31,0.00,,,0.00,332.000000,,2013-01-10 18:33:00,
2013-01-10 12:43:00,42.0,14.0,-100.00,SSW,199,5.0,13.0,31,0.00,,,0.00,332.000000,,2013-01-10 18:43:00,
2013-01-10 12:53:00,42.0,14.0,-100.00,SSW,199,5.0,13.0,31,0.00,,,0.00,332.000000,,2013-01-10 18:53:00,
2013-01-10 13:02:00,44.0,13.0,-100.00,South,191,4.0,12.0,28,0.01,,,-99.99,321.000000,,2013-01-10 19:02:00,
2013-01-10 13:33:00,44.0,13.0,-100.00,South,191,4.0,12.0,28,0.01,,,-99.99,321.000000,,2013-01-10 19:33:00,
2013-01-10 13:43:00,44.0,13.0,-100.00,South,191,4.0,12.0,28,0.01,,,-99.99,321.000000,,2013-01-10 19:43:00,
2013-01-10 13:53:00,44.0,13.0,-100.00,South,191,4.0,12.0,28,0.01,,,-99.99,321.000000,,2013-01-10 19:53:00,
2013-01-10 14:02:00,42.0,12.0,-100.00,South,191,4.0,11.0,29,0.01,,,0.02,216.000000,,2013-01-10 20:02:00,
2013-01-10 14:24:00,42.0,12.0,-100.00,South,191,4.0,11.0,29,0.01,,,0.02,216.000000,,2013-01-10 20:24:00,
2013-01-10 14:33:00,42.0,12.0,-100.00,South,191,4.0,11.0,29,0.01,,,0.02,216.000000,,2013-01-10 20:33:00,
2013-01-10 14:43:00,42.0,12.0,-100.00,South,191,4.0,11.0,29,0.01,,,0.02,216.000000,,2013-01-10 20:43:00,
2013-01-10 14:53:00,42.0,12.0,-100.00,South,191,4.0,11.0,29,0.01,,,0.02,216.000000,,2013-01-10 20:53:00,
2013-01-10 15:02:00,41.0,10.0,-100.00,South,175,4.0,11.0,28,0.01,,,0.03,116.000000,,2013-01-10 21:02:00,
2013-01-10 15:33:00,41.0,10.0,-100.00,South,175,4.0,11.0,28,0.01,,,0.03,116.000000,,2013-01-10 21:33:00,
2013-01-10 15:43:00,41.0,10.0,-100.00,South,175,4.0,11.0,28,0.01,,,0.03,116.000000,,2013-01-10 21:43:00,
2013-01-10 15:53:00,41.0,10.0,-100.00,South,175,4.0,11.0,28,0.01,,,0.03,116.000000,,2013-01-10 21:53:00,
2013-01-10 16:02:00,38.0,12.0,-100.00,SSE,157,4.0,10.0,34,0.00,,,0.03,39.000000,,2013-01-10 22:02:00,
2013-01-10 16:27:00,38.0,12.0,-100.00,SSE,157,4.0,10.0,34,0.00,,,0.03,39.000000,,2013-01-10 22:27:00,
2013-01-10 16:34:00,38.0,12.0,-100.00,SSE,157,4.0,10.0,34,0.00,,,0.03,39.000000,,2013-01-10 22:34:00,
2013-01-10 16:44:00,38.0,12.0,-100.00,SSE,157,4.0,10.0,34,0.00,,,0.03,39.000000,,2013-01-10 22:44:00,
2013-01-10 17:02:00,35.0,15.0,-100.00,SE,146,4.0,11.0,43,0.00,,,0.03,4.000000,,2013-01-10 23:02:00,
2013-01-10 17:33:00,35.0,15.0,-100.00,SE,146,4.0,11.0,43,0.00,,,0.03,4.000000,,2013-01-10 23:33:00,
2013-01-10 17:43:00,35.0,15.0,-100.00,SE,146,4.0,11.0,43,0.00,,,0.03,4.000000,,2013-01-10 23:43:00,
2013-01-10 17:53:00,35.0,15.0,-100.00,SE,146,4.0,11.0,43,0.00,,,0.03,4.000000,,2013-01-10 23:53:00,
2013-01-10 18:02:00,33.0,18.0,-100.00,SE,145,4.0,11.0,53,0.00,,,0.03,1.000000,,2013-01-11 00:02:00,
2013-01-10 18:33:00,33.0,18.0,-100.00,SE,145,4.0,11.0,53,0.00,,,0.03,1.000000,,2013-01-11 00:33:00,
2013-01-10 18:43:00,33.0,18.0,-100.00,SE,145,4.0,11.0,53,0.00,,,0.03,1.000000,,2013-01-11 00:43:00,
2013-01-10 18:53:00,33.0,18.0,-100.00,SE,145,4.0,11.0,53,0.00,,,0.03,1.000000,,2013-01-11 00:53:00,
2013-01-10 19:02:00,32.0,21.0,-100.00,SE,145,5.0,13.0,64,0.00,,,0.03,1.000000,,2013-01-11 01:02:00,
2013-01-10 19:34:00,32.0,21.0,-100.00,SE,145,5.0,13.0,64,0.00,,,0.03,1.000000,,2013-01-11 01:34:00,
2013-01-10 19:43:00,32.0,21.0,-100.00,SE,145,5.0,13.0,64,0.00,,,0.03,1.000000,,2013-01-11 01:43:00,
2013-01-10 19:53:00,32.0,21.0,-100.00,SE,145,5.0,13.0,64,0.00,,,0.03,1.000000,,2013-01-11 01:53:00,
2013-01-10 20:02:00,33.0,25.0,-100.00,SE,143,7.0,14.0,72,0.00,,,0.03,1.000000,,2013-01-11 02:02:00,
2013-01-10 20:24:00,33.0,25.0,-100.00,SE,143,7.0,14.0,72,0.00,,,0.03,1.000000,,2013-01-11 02:24:00,
2013-01-10 20:33:00,33.0,25.0,-100.00,SE,143,7.0,14.0,72,0.00,,,0.03,1.000000,,2013-01-11 02:33:00,
2013-01-10 20:43:00,33.0,25.0,-100.00,SE,143,7.0,14.0,72,0.00,,,0.03,1.000000,,2013-01-11 02:43:00,
2013-01-10 20:54:00,33.0,25.0,-100.00,SE,143,7.0,14.0,72,0.00,,,0.03,1.000000,,2013-01-11 02:54:00,
2013-01-10 21:02:00,33.0,28.0,-100.00,SSE,148,6.0,16.0,80,0.00,,,0.03,1.000000,,2013-01-11 03:02:00,
2013-01-10 21:33:00,33.0,28.0,-100.00,SSE,148,6.0,16.0,80,0.00,,,0.03,1.000000,,2013-01-11 03:33:00,
2013-01-10 21:43:00,33.0,28.0,-100.00,SSE,148,6.0,16.0,80,0.00,,,0.03,1.000000,,2013-01-11 03:43:00,
2013-01-10 21:53:00,33.0,28.0,-100.00,SSE,148,6.0,16.0,80,0.00,,,0.03,1.000000,,2013-01-11 03:53:00,
2013-01-10 22:02:00,32.0,32.0,-100.00,SE,138,5.0,12.0,98,0.04,,,0.07,1.000000,,2013-01-11 04:02:00,
2013-01-10 22:33:00,32.0,32.0,-100.00,SE,138,5.0,12.0,98,0.04,,,0.07,1.000000,,2013-01-11 04:33:00,
2013-01-10 22:43:00,32.0,32.0,-100.00,SE,138,5.0,12.0,98,0.04,,,0.07,1.000000,,2013-01-11 04:43:00,
2013-01-10 22:53:00,32.0,32.0,-100.00,SE,138,5.0,12.0,98,0.04,,,0.07,1.000000,,2013-01-11 04:53:00,
2013-01-10 23:02:00,32.0,32.0,-100.00,SE,142,6.0,15.0,100,0.04,,,0.11,1.000000,,2013-01-11 05:02:00,
2013-01-10 23:33:00,32.0,32.0,-100.00,SE,142,6.0,15.0,100,0.04,,,0.11,1.000000,,2013-01-11 05:33:00,
2013-01-10 23:43:00,32.0,32.0,-100.00,SE,142,6.0,15.0,100,0.04,,,0.11,1.000000,,2013-01-11 05:43:00,
2013-01-10 23:53:00,32.0,32.0,-100.00,SE,142,6.0,15.0,100,0.04,,,0.11,1.000000,,2013-01-11 05:53:00,